createdAt,value
2019-02-02T00:01:03.429Z,0.40
2019-02-02T00:03:35.243Z,0.60
2019-02-02T00:06:07.103Z,0.70
2019-02-02T00:08:38.863Z,0.70
2019-02-02T00:11:12.647Z,1.00
2019-02-02T00:13:45.381Z,1.00
2019-02-02T00:16:18.550Z,1.00
2019-02-02T00:18:51.271Z,1.10
2019-02-02T00:21:24.385Z,1.10
2019-02-02T00:23:57.405Z,1.00
2019-02-02T00:26:30.575Z,1.00
2019-02-02T00:29:03.683Z,0.90
2019-02-02T00:31:36.631Z,0.90
2019-02-02T00:34:09.497Z,0.90
2019-02-02T00:36:42.708Z,0.90
2019-02-02T00:39:15.918Z,0.90
2019-02-02T00:41:49.531Z,0.90
2019-02-02T00:44:23.362Z,0.90
2019-02-02T00:46:58.408Z,0.90
2019-02-02T00:49:33.407Z,0.90
2019-02-02T00:52:06.902Z,0.90
2019-02-02T00:54:39.684Z,1.00
2019-02-02T00:57:13.082Z,1.20
2019-02-02T00:59:46.246Z,1.20
2019-02-02T01:02:19.581Z,1.30
2019-02-02T01:04:52.666Z,1.30
2019-02-02T01:07:25.594Z,1.20
2019-02-02T01:09:58.837Z,1.20
2019-02-02T01:12:31.930Z,1.20
2019-02-02T01:15:06.319Z,1.30
2019-02-02T01:17:39.002Z,1.40
2019-02-02T01:20:12.191Z,1.40
2019-02-02T01:22:45.579Z,1.60
2019-02-02T01:25:18.239Z,1.70
2019-02-02T01:27:51.744Z,1.80
2019-02-02T01:30:24.868Z,1.80
2019-02-02T01:32:58.231Z,1.80
2019-02-02T01:35:31.989Z,1.90
2019-02-02T01:38:05.381Z,1.90
2019-02-02T01:40:38.873Z,1.90
2019-02-02T01:43:11.472Z,2.00
2019-02-02T01:45:44.510Z,2.00
2019-02-02T01:48:17.660Z,2.00
2019-02-02T01:50:50.405Z,2.00
2019-02-02T01:53:23.589Z,1.90
2019-02-02T01:55:56.744Z,2.00
2019-02-02T01:58:29.564Z,1.90
2019-02-02T02:01:02.354Z,1.90
2019-02-02T02:03:35.437Z,1.80
2019-02-02T02:06:08.075Z,1.90
2019-02-02T02:08:40.679Z,1.80
2019-02-02T02:11:14.184Z,1.80
2019-02-02T02:13:47.781Z,1.80
2019-02-02T02:16:21.688Z,1.80
2019-02-02T02:18:55.195Z,1.80
2019-02-02T02:21:29.211Z,1.70
2019-02-02T02:24:02.376Z,1.70
2019-02-02T02:26:36.360Z,1.80
2019-02-02T02:29:08.466Z,1.80
2019-02-02T02:31:41.121Z,1.80
2019-02-02T02:34:14.226Z,1.90
2019-02-02T02:36:47.707Z,1.80
2019-02-02T02:39:20.307Z,1.70
2019-02-02T02:41:53.007Z,1.70
2019-02-02T02:44:25.784Z,1.80
2019-02-02T02:46:59.029Z,1.70
2019-02-02T02:49:32.768Z,1.70
2019-02-02T02:52:05.908Z,1.70
2019-02-02T02:54:40.394Z,1.70
2019-02-02T02:57:13.943Z,1.60
2019-02-02T02:59:47.089Z,1.60
2019-02-02T03:02:19.940Z,1.50
2019-02-02T03:04:52.638Z,1.60
2019-02-02T03:07:28.093Z,1.80
2019-02-02T03:10:01.596Z,2.00
2019-02-02T03:12:34.856Z,1.90
2019-02-02T03:15:09.425Z,1.80
2019-02-02T03:17:43.857Z,1.70
2019-02-02T03:20:16.935Z,1.70
2019-02-02T03:22:49.864Z,1.70
2019-02-02T03:25:24.103Z,1.70
2019-02-02T03:27:56.987Z,1.80
2019-02-02T03:30:30.751Z,2.10
2019-02-02T03:33:03.326Z,2.10
2019-02-02T03:35:36.582Z,2.10
2019-02-02T03:38:09.118Z,2.10
2019-02-02T03:40:42.623Z,2.10
2019-02-02T03:43:16.654Z,2.10
2019-02-02T03:45:50.426Z,2.10
2019-02-02T03:48:23.295Z,2.10
2019-02-02T03:50:56.509Z,2.20
2019-02-02T03:53:29.577Z,2.10
2019-02-02T03:56:03.054Z,2.10
2019-02-02T03:58:35.931Z,2.10
2019-02-02T04:01:08.711Z,2.10
2019-02-02T04:03:41.904Z,2.10
2019-02-02T04:06:18.441Z,1.90
2019-02-02T04:08:51.877Z,2.00
2019-02-02T04:11:25.643Z,2.10
2019-02-02T04:14:00.178Z,2.10
2019-02-02T04:16:33.374Z,2.00
2019-02-02T04:19:06.292Z,2.00
2019-02-02T04:21:39.461Z,2.00
2019-02-02T04:24:12.688Z,2.00
2019-02-02T04:26:46.922Z,2.00
2019-02-02T04:29:20.064Z,2.00
2019-02-02T04:31:53.294Z,2.00
2019-02-02T04:34:26.649Z,2.10
2019-02-02T04:37:00.278Z,2.10
2019-02-02T04:39:33.484Z,2.00
2019-02-02T04:42:06.731Z,1.90
2019-02-02T04:44:40.235Z,1.80
2019-02-02T04:47:13.995Z,1.80
2019-02-02T04:49:53.346Z,1.80
2019-02-02T04:52:27.380Z,1.90
2019-02-02T04:55:01.414Z,1.90
2019-02-02T04:57:35.717Z,2.00
2019-02-02T05:00:10.238Z,2.00
2019-02-02T05:02:45.830Z,2.00
2019-02-02T05:05:20.700Z,2.00
2019-02-02T05:07:53.995Z,2.00
2019-02-02T05:10:26.700Z,2.00
2019-02-02T05:13:00.344Z,1.90
2019-02-02T05:15:33.490Z,1.80
2019-02-02T05:18:06.933Z,1.80
2019-02-02T05:20:40.252Z,1.90
2019-02-02T05:23:16.876Z,1.80
2019-02-02T05:25:50.281Z,1.90
2019-02-02T05:28:23.699Z,2.00
2019-02-02T05:30:56.484Z,2.10
2019-02-02T05:33:30.869Z,2.10
2019-02-02T05:36:03.667Z,2.10
2019-02-02T05:38:38.309Z,2.10
2019-02-02T05:41:11.330Z,2.00
2019-02-02T05:43:44.687Z,2.00
2019-02-02T05:46:18.240Z,2.00
2019-02-02T05:48:51.947Z,2.10
2019-02-02T05:51:25.493Z,2.00
2019-02-02T05:53:58.745Z,2.00
2019-02-02T05:56:31.978Z,2.10
2019-02-02T05:59:05.083Z,2.00
2019-02-02T06:01:38.166Z,2.00
2019-02-02T06:04:11.968Z,1.90
2019-02-02T06:06:45.273Z,2.00
2019-02-02T06:09:18.213Z,2.00
2019-02-02T06:11:51.520Z,2.00
2019-02-02T06:14:25.118Z,2.00
2019-02-02T06:16:58.296Z,2.00
2019-02-02T06:19:32.250Z,1.90
2019-02-02T06:22:05.899Z,1.90
2019-02-02T06:24:38.895Z,1.90
2019-02-02T06:27:11.910Z,2.10
2019-02-02T06:29:46.035Z,2.20
2019-02-02T06:32:24.700Z,2.20
2019-02-02T06:34:58.883Z,2.20
2019-02-02T06:37:32.655Z,2.10
2019-02-02T06:40:06.696Z,2.10
2019-02-02T06:42:43.531Z,2.20
2019-02-02T06:45:22.384Z,2.20
2019-02-02T06:47:56.661Z,2.20
2019-02-02T06:50:29.872Z,2.10
2019-02-02T06:53:03.554Z,2.20
2019-02-02T06:55:58.096Z,2.30
2019-02-02T06:58:34.090Z,2.30
2019-02-02T07:01:10.654Z,2.30
2019-02-02T07:03:46.610Z,2.30
2019-02-02T07:06:22.198Z,2.30
2019-02-02T07:09:01.699Z,2.30
2019-02-02T07:11:38.927Z,2.30
2019-02-02T07:14:13.991Z,2.30
2019-02-02T07:16:49.998Z,2.30
2019-02-02T07:19:24.411Z,2.30
2019-02-02T07:22:00.458Z,2.30
2019-02-02T07:24:35.949Z,2.30
2019-02-02T07:27:11.795Z,2.30
2019-02-02T07:29:44.951Z,2.30
2019-02-02T07:32:18.810Z,2.40
2019-02-02T07:34:52.627Z,2.40
2019-02-02T07:37:29.627Z,2.40
2019-02-02T07:40:03.679Z,2.40
2019-02-02T07:42:36.563Z,2.40
2019-02-02T07:45:12.163Z,2.40
2019-02-02T07:47:47.733Z,2.30
2019-02-02T07:50:20.409Z,2.20
2019-02-02T07:52:54.354Z,2.30
2019-02-02T07:55:28.672Z,2.20
2019-02-02T07:58:02.267Z,2.10
2019-02-02T08:00:41.488Z,2.20
2019-02-02T08:03:13.854Z,2.30
2019-02-02T08:05:46.523Z,2.30
2019-02-02T08:08:20.367Z,2.30
2019-02-02T08:10:55.243Z,2.40
2019-02-02T08:13:28.377Z,2.40
2019-02-02T08:16:01.759Z,2.50
2019-02-02T08:18:35.361Z,2.50
2019-02-02T08:21:13.127Z,2.50
2019-02-02T08:23:46.978Z,2.40
2019-02-02T08:26:19.691Z,2.40
2019-02-02T08:28:54.095Z,2.40
2019-02-02T08:31:28.108Z,2.40
2019-02-02T08:34:00.851Z,2.50
2019-02-02T08:36:47.011Z,2.50
2019-02-02T08:39:29.012Z,2.50
2019-02-02T08:41:55.887Z,2.50
2019-02-02T08:44:29.562Z,2.60
2019-02-02T08:47:03.174Z,2.60
2019-02-02T08:49:36.832Z,2.60
2019-02-02T08:52:10.153Z,2.60
2019-02-02T08:54:43.195Z,2.70
2019-02-02T08:57:15.855Z,2.70
2019-02-02T08:59:49.595Z,2.70
2019-02-02T09:02:23.104Z,2.70
2019-02-02T09:04:56.491Z,2.80
2019-02-02T09:07:31.328Z,2.80
2019-02-02T09:10:05.790Z,2.90
2019-02-02T09:12:39.234Z,2.90
2019-02-02T09:15:13.408Z,2.90
2019-02-02T09:17:47.488Z,2.90
2019-02-02T09:20:20.408Z,2.90
2019-02-02T09:23:05.869Z,3.00
2019-02-02T09:25:31.093Z,2.90
2019-02-02T09:28:04.070Z,2.90
2019-02-02T09:30:38.125Z,2.90
2019-02-02T09:33:11.155Z,2.90
2019-02-02T09:35:43.516Z,2.90
2019-02-02T09:38:15.821Z,2.80
2019-02-02T09:40:48.322Z,2.80
2019-02-02T09:43:20.718Z,2.80
2019-02-02T09:45:52.929Z,2.80
2019-02-02T09:48:25.073Z,2.80
2019-02-02T09:50:58.295Z,2.80
2019-02-02T09:53:30.698Z,2.80
2019-02-02T09:56:01.938Z,2.80
2019-02-02T09:58:33.909Z,2.80
2019-02-02T10:01:04.660Z,2.80
2019-02-02T10:03:35.709Z,2.90
2019-02-02T10:06:16.518Z,2.90
2019-02-02T10:08:47.216Z,2.90
2019-02-02T10:11:18.384Z,2.80
2019-02-02T10:13:52.349Z,2.80
2019-02-02T10:16:23.399Z,2.90
2019-02-02T10:18:57.628Z,3.00
2019-02-02T10:21:28.314Z,3.00
2019-02-02T10:23:59.594Z,3.00
2019-02-02T10:26:30.439Z,3.00
2019-02-02T10:29:02.553Z,3.00
2019-02-02T10:31:39.676Z,3.00
2019-02-02T10:34:12.425Z,3.00
2019-02-02T10:36:45.197Z,3.00
2019-02-02T10:39:17.784Z,3.10
2019-02-02T10:41:50.616Z,3.10
2019-02-02T10:44:23.107Z,3.00
2019-02-02T10:46:55.137Z,3.00
2019-02-02T10:49:27.274Z,3.00
2019-02-02T10:51:59.397Z,3.00
2019-02-02T10:54:31.821Z,3.00
2019-02-02T10:57:05.631Z,3.00
2019-02-02T10:59:37.810Z,3.10
2019-02-02T11:02:09.910Z,3.10
2019-02-02T11:04:43.349Z,3.10
2019-02-02T11:07:16.284Z,3.20
2019-02-02T11:09:49.653Z,3.20
2019-02-02T11:12:20.570Z,3.20
2019-02-02T11:14:51.777Z,3.20
2019-02-02T11:17:23.311Z,3.20
2019-02-02T11:19:54.123Z,3.20
2019-02-02T11:22:25.164Z,3.10
2019-02-02T11:24:56.533Z,3.10
2019-02-02T11:27:27.862Z,3.20
2019-02-02T11:30:15.816Z,3.20
2019-02-02T11:32:47.346Z,3.30
2019-02-02T11:35:18.578Z,3.20
2019-02-02T11:37:51.588Z,3.20
2019-02-02T11:40:25.403Z,3.30
2019-02-02T11:42:57.299Z,3.30
2019-02-02T11:45:39.498Z,3.30
2019-02-02T11:48:10.882Z,3.40
2019-02-02T11:50:44.605Z,3.30
2019-02-02T11:53:18.803Z,3.30
2019-02-02T11:55:50.503Z,3.40
2019-02-02T11:58:23.103Z,3.40
2019-02-02T12:00:54.690Z,3.40
2019-02-02T12:03:29.782Z,3.40
2019-02-02T12:06:01.545Z,3.30
2019-02-02T12:08:34.671Z,3.20
2019-02-02T12:11:13.963Z,3.20
2019-02-02T12:13:47.082Z,3.10
2019-02-02T12:16:18.615Z,3.10
2019-02-02T12:18:50.052Z,3.10
2019-02-02T12:21:21.971Z,3.10
2019-02-02T12:23:57.396Z,3.20
2019-02-02T12:26:29.313Z,3.10
2019-02-02T12:29:06.151Z,3.10
2019-02-02T12:31:43.739Z,3.10
2019-02-02T12:34:19.577Z,3.20
2019-02-02T12:36:57.396Z,3.10
2019-02-02T12:39:30.983Z,3.10
2019-02-02T12:42:04.135Z,3.10
2019-02-02T12:44:36.792Z,3.10
2019-02-02T12:47:13.179Z,3.10
2019-02-02T12:50:04.005Z,3.00
2019-02-02T12:53:10.451Z,3.00
2019-02-02T12:55:39.300Z,3.00
2019-02-02T12:58:15.883Z,3.00
2019-02-02T13:00:55.101Z,3.00
2019-02-02T13:03:32.141Z,2.90
2019-02-02T13:06:06.750Z,2.90
2019-02-02T13:08:40.772Z,2.90
2019-02-02T13:11:17.656Z,2.90
2019-02-02T13:13:50.568Z,2.90
2019-02-02T13:16:24.092Z,3.00
2019-02-02T13:18:57.287Z,3.00
2019-02-02T13:21:30.729Z,3.00
2019-02-02T13:24:04.503Z,3.00
2019-02-02T13:26:37.716Z,2.90
2019-02-02T13:29:10.485Z,2.90
2019-02-02T13:31:43.624Z,2.80
2019-02-02T13:34:17.348Z,2.80
2019-02-02T13:36:54.182Z,2.80
2019-02-02T13:39:32.618Z,2.80
2019-02-02T13:42:09.996Z,2.80
2019-02-02T13:44:45.925Z,2.80
2019-02-02T13:47:24.048Z,2.80
2019-02-02T13:50:11.649Z,2.80
2019-02-02T13:52:50.864Z,2.80
2019-02-02T13:55:26.520Z,2.70
2019-02-02T13:58:01.072Z,2.60
2019-02-02T14:00:37.413Z,2.50
2019-02-02T14:03:15.481Z,2.50
2019-02-02T14:05:51.121Z,2.50
2019-02-02T14:08:27.113Z,2.50
2019-02-02T14:11:05.483Z,2.50
2019-02-02T14:13:42.424Z,2.50
2019-02-02T14:16:17.856Z,2.40
2019-02-02T14:18:53.064Z,2.50
2019-02-02T14:21:28.841Z,2.50
2019-02-02T14:24:03.464Z,2.50
2019-02-02T14:26:42.174Z,2.50
2019-02-02T14:29:15.997Z,2.40
2019-02-02T14:31:51.218Z,2.40
2019-02-02T14:34:39.605Z,2.40
2019-02-02T14:37:05.588Z,2.40
2019-02-02T14:39:39.598Z,2.30
2019-02-02T14:42:13.340Z,2.30
2019-02-02T14:44:48.012Z,2.30
2019-02-02T14:47:21.241Z,2.30
2019-02-02T14:49:57.167Z,2.20
2019-02-02T14:52:34.619Z,2.20
2019-02-02T14:55:11.917Z,2.10
2019-02-02T14:57:48.221Z,2.10
2019-02-02T15:00:23.311Z,2.10
2019-02-02T15:02:58.182Z,2.10
2019-02-02T15:05:42.087Z,2.10
2019-02-02T15:08:03.747Z,2.20
2019-02-02T15:10:36.878Z,2.10
2019-02-02T15:13:13.934Z,2.10
2019-02-02T15:15:48.927Z,2.10
2019-02-02T15:18:22.685Z,2.10
2019-02-02T15:20:57.929Z,2.10
2019-02-02T15:23:32.309Z,2.10
2019-02-02T15:26:07.359Z,2.10
2019-02-02T15:28:41.496Z,2.00
2019-02-02T15:31:19.027Z,2.00
2019-02-02T15:33:53.628Z,2.10
2019-02-02T15:36:29.516Z,2.10
2019-02-02T15:39:05.603Z,2.10
2019-02-02T15:41:52.343Z,2.10
2019-02-02T15:44:18.530Z,2.10
2019-02-02T15:46:53.322Z,2.10
2019-02-02T15:49:26.381Z,2.10
2019-02-02T15:51:59.298Z,2.10
2019-02-02T15:54:32.398Z,2.10
2019-02-02T15:57:06.997Z,2.10
2019-02-02T15:59:38.894Z,2.10
2019-02-02T16:02:13.137Z,2.10
2019-02-02T16:04:44.120Z,2.00
2019-02-02T16:07:16.943Z,2.00
2019-02-02T16:09:49.828Z,1.90
2019-02-02T16:12:23.313Z,1.90
2019-02-02T16:14:55.036Z,1.90
2019-02-02T16:17:26.312Z,1.90
2019-02-02T16:19:59.293Z,1.90
2019-02-02T16:22:32.361Z,1.90
2019-02-02T16:25:04.099Z,1.90
2019-02-02T16:27:36.093Z,1.80
2019-02-02T16:30:10.832Z,1.80
2019-02-02T16:32:43.657Z,1.80
2019-02-02T16:35:17.297Z,1.80
2019-02-02T16:37:49.981Z,1.80
2019-02-02T16:40:23.511Z,1.80
2019-02-02T16:42:57.008Z,1.70
2019-02-02T16:45:30.569Z,1.70
2019-02-02T16:48:02.974Z,1.70
2019-02-02T16:50:37.065Z,1.70
2019-02-02T16:53:09.825Z,1.70
2019-02-02T16:55:42.320Z,1.60
2019-02-02T16:58:14.833Z,1.60
2019-02-02T17:00:47.756Z,1.60
2019-02-02T17:03:20.711Z,1.50
2019-02-02T17:05:51.681Z,1.50
2019-02-02T17:08:24.630Z,1.50
2019-02-02T17:10:56.644Z,1.40
2019-02-02T17:13:29.570Z,1.40
2019-02-02T17:16:02.842Z,1.40
2019-02-02T17:18:33.907Z,1.40
2019-02-02T17:21:05.445Z,1.40
2019-02-02T17:23:38.487Z,1.40
2019-02-02T17:26:10.747Z,1.40
2019-02-02T17:28:45.161Z,1.40
2019-02-02T17:31:16.821Z,1.40
2019-02-02T17:33:49.029Z,1.40
2019-02-02T17:36:21.055Z,1.40
2019-02-02T17:38:53.408Z,1.40
2019-02-02T17:41:34.410Z,1.40
2019-02-02T17:44:07.676Z,1.40
2019-02-02T17:46:40.590Z,1.30
2019-02-02T17:49:14.922Z,1.30
2019-02-02T17:51:47.755Z,1.40
2019-02-02T17:54:20.758Z,1.40
2019-02-02T17:56:52.629Z,1.30
2019-02-02T17:59:24.270Z,1.30
2019-02-02T18:01:57.174Z,1.30
2019-02-02T18:04:39.109Z,1.40
2019-02-02T18:07:05.617Z,1.40
2019-02-02T18:09:38.686Z,1.40
2019-02-02T18:12:11.140Z,1.40
2019-02-02T18:14:45.757Z,1.40
2019-02-02T18:17:17.930Z,1.40
2019-02-02T18:19:50.210Z,1.40
2019-02-02T18:22:21.813Z,1.40
2019-02-02T18:24:53.333Z,1.40
2019-02-02T18:27:24.836Z,1.40
2019-02-02T18:29:57.556Z,1.40
2019-02-02T18:32:29.371Z,1.40
2019-02-02T18:35:03.481Z,1.40
2019-02-02T18:37:35.890Z,1.40
2019-02-02T18:40:08.097Z,1.40
2019-02-02T18:42:39.670Z,1.40
2019-02-02T18:45:19.109Z,1.40
2019-02-02T18:47:50.358Z,1.40
2019-02-02T18:50:23.099Z,1.40
2019-02-02T18:52:56.320Z,1.40
2019-02-02T18:55:40.119Z,1.40
2019-02-02T18:58:14.951Z,1.40
2019-02-02T19:00:46.414Z,1.40
2019-02-02T19:03:19.391Z,1.50
2019-02-02T19:05:50.441Z,1.50
2019-02-02T19:08:23.792Z,1.50
2019-02-02T19:10:56.594Z,1.50
2019-02-02T19:13:28.397Z,1.60
2019-02-02T19:16:01.378Z,1.60
2019-02-02T19:18:35.514Z,1.60
2019-02-02T19:21:09.186Z,1.60
2019-02-02T19:23:41.869Z,1.60
2019-02-02T19:26:14.244Z,1.60
2019-02-02T19:28:45.358Z,1.70
2019-02-02T19:31:16.642Z,1.70
2019-02-02T19:33:49.684Z,1.70
2019-02-02T19:36:21.176Z,1.70
2019-02-02T19:38:52.540Z,1.60
2019-02-02T19:41:47.556Z,1.70
2019-02-02T19:44:13.467Z,1.70
2019-02-02T19:46:48.403Z,1.70
2019-02-02T19:49:20.489Z,1.70
2019-02-02T19:51:58.455Z,1.70
2019-02-02T19:54:30.011Z,1.70
2019-02-02T19:57:01.018Z,1.70
2019-02-02T19:59:32.710Z,1.70
2019-02-02T20:02:04.510Z,1.70
2019-02-02T20:04:35.965Z,1.70
2019-02-02T20:07:08.307Z,1.70
2019-02-02T20:09:40.504Z,1.70
2019-02-02T20:12:11.273Z,1.70
2019-02-02T20:14:42.164Z,1.70
2019-02-02T20:17:14.701Z,1.70
2019-02-02T20:19:46.108Z,1.80
2019-02-02T20:22:18.835Z,1.80
2019-02-02T20:24:53.589Z,1.80
2019-02-02T20:27:25.825Z,1.80
2019-02-02T20:29:57.778Z,1.80
2019-02-02T20:32:29.749Z,1.80
2019-02-02T20:35:02.040Z,1.80
2019-02-02T20:37:33.899Z,1.80
2019-02-02T20:40:06.859Z,1.80
2019-02-02T20:42:39.535Z,1.80
2019-02-02T20:45:13.836Z,1.80
2019-02-02T20:47:46.184Z,1.80
2019-02-02T20:50:18.942Z,1.80
2019-02-02T20:52:52.325Z,1.80
2019-02-02T20:55:30.225Z,1.80
2019-02-02T20:58:09.617Z,1.80
2019-02-02T21:00:44.013Z,1.80
2019-02-02T21:03:15.498Z,1.80
2019-02-02T21:05:52.815Z,1.80
2019-02-02T21:08:27.808Z,1.80
2019-02-02T21:11:03.442Z,1.80
2019-02-02T21:13:35.425Z,1.80
2019-02-02T21:16:08.112Z,1.80
2019-02-02T21:18:39.802Z,1.80
2019-02-02T21:21:11.544Z,1.80
2019-02-02T21:23:43.523Z,1.90
2019-02-02T21:26:15.154Z,1.90
2019-02-02T21:28:50.457Z,1.90
2019-02-02T21:31:22.215Z,1.80
2019-02-02T21:33:54.481Z,1.80
2019-02-02T21:36:36.196Z,1.90
2019-02-02T21:39:07.990Z,1.80
2019-02-02T21:41:43.541Z,1.80
2019-02-02T21:44:24.944Z,1.80
2019-02-02T21:47:01.489Z,1.80
2019-02-02T21:49:34.123Z,1.80
2019-02-02T21:53:11.363Z,1.80
2019-02-02T21:56:27.833Z,1.80
2019-02-02T21:59:21.459Z,1.80
2019-02-02T22:02:32.947Z,1.80
2019-02-02T22:05:47.527Z,1.80
2019-02-02T22:08:43.049Z,1.80
2019-02-02T22:11:26.865Z,1.80
2019-02-02T22:13:54.735Z,1.80
2019-02-02T22:17:09.247Z,1.80
2019-02-02T22:19:31.881Z,1.80
2019-02-02T22:22:14.209Z,1.90
2019-02-02T22:25:00.357Z,1.90
2019-02-02T22:27:44.980Z,1.90
2019-02-02T22:30:38.990Z,1.90
2019-02-02T22:33:22.394Z,1.90
2019-02-02T22:36:01.947Z,1.90
2019-02-02T22:39:04.588Z,2.00
2019-02-02T22:41:54.854Z,2.00
2019-02-02T22:44:36.653Z,1.90
2019-02-02T22:47:24.407Z,1.80
2019-02-02T22:50:25.042Z,1.80
2019-02-02T22:54:00.119Z,1.70
2019-02-02T22:56:03.521Z,1.70
2019-02-02T22:58:41.416Z,1.70
2019-02-02T23:01:28.045Z,1.70
2019-02-02T23:05:02.338Z,1.70
2019-02-02T23:12:33.840Z,1.80
2019-02-02T23:15:51.701Z,1.80
2019-02-02T23:18:26.235Z,1.80
2019-02-02T23:21:01.594Z,1.70
2019-02-02T23:23:35.495Z,1.80
2019-02-02T23:26:08.719Z,1.70
2019-02-02T23:28:41.296Z,1.80
2019-02-02T23:31:16.398Z,1.80
2019-02-02T23:33:50.537Z,1.80
2019-02-02T23:36:25.452Z,1.80
2019-02-02T23:38:59.728Z,1.80
2019-02-02T23:41:36.529Z,1.80
2019-02-02T23:44:14.951Z,1.80
2019-02-02T23:46:54.150Z,1.80
2019-02-02T23:49:25.964Z,1.80
2019-02-02T23:52:00.080Z,1.80
2019-02-02T23:54:32.952Z,1.80
2019-02-02T23:57:06.274Z,1.80
2019-02-02T23:59:40.032Z,1.90
